Terminal Aerodrome Forecast
Issued by NWS Newport/Morehead City, NC

Home | Current Version | Previous Version | Text Only | Print | Product List | Glossary Off
Versions: 1 2 3 4 5 6 7 8 9 10 11 12 13 14 15 16 17 18 19 20 21

000
FTUS42 KMHX 041759
TAFEWN
TAF
KEWN 041759Z 0418/0518 30009KT P6SM SCT050
     FM042100 31006KT P6SM VCSH FEW040 BKN100
     FM050600 00000KT 4SM BR BKN100
     FM050900 06002KT 3SM BR OVC007
     FM051100 03002KT 4SM BR BKN100
     FM051300 28006KT P6SM SCT250=

USA.gov is the U.S. government's official web portal to all federal, state and local government web resources and services.